Time;durP1;ratioP1;P1;durP2;ratioP2;P2;SDS_P1;SDS_P2;PMS_P1;PMS_P2;Temp;Humidity;BMP_temperature;BMP_pressure;BME280_temperature;BME280_humidity;BME280_pressure;Samples;Min_cycle;Max_cycle;Signal;HPM_P1;HPM_P2
2022/06/08 00:00:54;;;;;;;2.95;1.60;;;17.60;91.90;;;;;;4959215;28;20034;-76
2022/06/08 00:03:28;;;;;;;4.10;1.58;;;17.60;91.90;;;;;;4976449;28;20015;-77
2022/06/08 00:05:54;;;;;;;2.45;1.48;;;17.60;91.80;;;;;;4976808;28;20038;-77
2022/06/08 00:08:19;;;;;;;4.13;1.50;;;17.60;91.80;;;;;;4991771;28;20041;-76
2022/06/08 00:10:45;;;;;;;4.30;1.63;;;17.60;91.70;;;;;;4991593;28;20087;-75
2022/06/08 00:13:12;;;;;;;2.85;1.60;;;17.60;91.70;;;;;;4959095;28;20027;-76
2022/06/08 00:15:38;;;;;;;3.65;1.50;;;17.70;91.70;;;;;;4976450;28;20029;-76
2022/06/08 00:18:05;;;;;;;2.72;1.40;;;17.70;91.60;;;;;;4977900;28;20075;-76
2022/06/08 00:20:30;;;;;;;4.07;1.70;;;17.60;91.60;;;;;;4959360;28;20081;-76
2022/06/08 00:22:56;;;;;;;3.42;1.60;;;17.70;91.60;;;;;;4958884;28;20431;-76
2022/06/08 00:25:22;;;;;;;4.15;1.40;;;17.60;91.60;;;;;;4958928;28;20027;-76
2022/06/08 00:27:48;;;;;;;2.38;1.30;;;17.60;91.70;;;;;;4976196;28;20093;-76
2022/06/08 00:30:14;;;;;;;3.10;1.60;;;17.60;91.70;;;;;;4976260;28;20102;-77
2022/06/08 00:32:39;;;;;;;3.47;1.65;;;17.60;91.80;;;;;;4958686;28;20388;-76
2022/06/08 00:35:06;;;;;;;3.58;1.40;;;17.50;91.80;;;;;;4958518;28;20026;-75
2022/06/08 00:37:32;;;;;;;2.38;1.50;;;17.50;91.80;;;;;;4958696;28;20031;-76
2022/06/08 00:39:57;;;;;;;2.17;1.60;;;17.60;91.90;;;;;;4958785;28;20018;-76
2022/06/08 00:42:25;;;;;;;3.05;1.50;;;17.50;91.90;;;;;;4958794;28;20166;-75
2022/06/08 00:45:04;;;;;;;3.55;1.50;;;17.50;91.90;;;;;;4958393;28;20451;-77
2022/06/08 00:47:41;;;;;;;2.35;1.45;;;17.50;91.90;;;;;;4958701;28;20034;-78
2022/06/08 00:50:33;;;;;;;3.25;1.75;;;17.50;91.90;;;;;;4976138;28;20424;-77
2022/06/08 00:52:59;;;;;;;2.22;1.27;;;17.50;91.90;;;;;;4958275;28;20022;-77
2022/06/08 00:55:28;;;;;;;2.13;1.40;;;17.50;91.90;;;;;;4974211;28;20031;-77
2022/06/08 00:57:58;;;;;;;2.83;1.52;;;17.50;92.00;;;;;;4957974;28;20382;-75
2022/06/08 01:00:30;;;;;;;2.97;1.50;;;17.50;92.00;;;;;;4958093;28;20027;-77
2022/06/08 01:02:56;;;;;;;2.60;1.67;;;17.50;91.90;;;;;;4974106;28;20027;-75
2022/06/08 01:05:30;;;;;;;3.30;1.70;;;17.60;91.90;;;;;;4975187;28;20034;-77
2022/06/08 01:07:59;;;;;;;2.63;1.40;;;17.50;91.90;;;;;;4958416;28;20030;-76
2022/06/08 01:10:28;;;;;;;2.17;1.52;;;17.60;91.80;;;;;;4975216;28;20019;-77
2022/06/08 01:12:56;;;;;;;3.38;1.58;;;17.60;91.70;;;;;;4990415;28;20037;-76
2022/06/08 01:15:26;;;;;;;3.28;1.65;;;17.60;91.70;;;;;;4958067;28;20030;-77
2022/06/08 01:17:52;;;;;;;3.35;1.67;;;17.70;91.70;;;;;;4975551;28;20023;-77
2022/06/08 01:20:18;;;;;;;4.28;1.50;;;17.70;91.60;;;;;;4958032;28;20496;-77
2022/06/08 01:22:43;;;;;;;2.88;1.50;;;17.60;91.60;;;;;;4975364;28;20066;-77
2022/06/08 01:25:12;;;;;;;3.53;1.40;;;17.70;91.70;;;;;;4957862;28;20027;-77
2022/06/08 01:27:49;;;;;;;2.58;1.52;;;17.60;91.70;;;;;;4957751;28;20034;-72
2022/06/08 01:30:21;;;;;;;3.42;1.48;;;17.60;91.70;;;;;;4975121;28;20023;-75
2022/06/08 01:33:18;;;;;;;2.88;1.48;;;17.50;92.00;;;;;;4957197;28;20033;-76
2022/06/08 01:36:01;;;;;;;4.05;1.52;;;17.50;91.80;;;;;;4957521;28;20034;-77
2022/06/08 01:38:48;;;;;;;2.20;1.60;;;17.60;91.90;;;;;;4957871;28;20027;-76
2022/06/08 01:41:50;;;;;;;3.03;1.63;;;17.50;91.90;;;;;;4957836;28;20407;-77
2022/06/08 01:44:40;;;;;;;2.28;1.50;;;17.50;91.90;;;;;;4974707;28;20034;-76
2022/06/08 01:47:31;;;;;;;2.92;1.48;;;17.50;91.90;;;;;;4974955;28;20019;-76
2022/06/08 01:50:07;;;;;;;2.20;1.40;;;17.50;92.20;;;;;;4965750;28;20038;-77
2022/06/08 01:52:33;;;;;;;3.05;1.50;;;17.50;91.90;;;;;;4974902;28;20027;-76
2022/06/08 01:55:22;;;;;;;2.65;1.55;;;17.50;92.00;;;;;;4974361;28;20027;-76
2022/06/08 01:58:14;;;;;;;3.35;1.60;;;17.50;92.00;;;;;;4989549;28;20042;-76
2022/06/08 02:00:46;;;;;;;2.63;1.60;;;17.50;92.00;;;;;;4974514;28;20026;-77
2022/06/08 02:03:29;;;;;;;2.50;1.50;;;17.50;92.00;;;;;;4956962;28;20035;-77
2022/06/08 02:06:04;;;;;;;2.20;1.40;;;17.50;92.00;;;;;;4960281;28;20031;-76
2022/06/08 02:08:56;;;;;;;1.92;1.40;;;17.50;91.90;;;;;;4957414;28;20027;-76
2022/06/08 02:11:47;;;;;;;2.00;1.45;;;17.50;91.90;;;;;;4956936;28;20492;-77
2022/06/08 02:14:30;;;;;;;2.50;1.60;;;17.60;91.80;;;;;;4974170;28;20055;-76
2022/06/08 02:17:05;;;;;;;2.63;1.42;;;17.60;91.70;;;;;;4973871;28;20107;-75
2022/06/08 02:19:43;;;;;;;3.25;1.90;;;17.60;91.70;;;;;;4956951;28;20066;-76
2022/06/08 02:22:23;;;;;;;2.78;1.70;;;17.60;91.60;;;;;;4956949;28;20492;-77
2022/06/08 02:25:11;;;;;;;2.60;1.70;;;17.60;91.60;;;;;;4974459;28;20443;-77
2022/06/08 02:27:48;;;;;;;2.78;1.63;;;17.60;91.60;;;;;;4956831;28;20031;-75
2022/06/08 02:30:24;;;;;;;2.95;2.00;;;17.60;91.60;;;;;;4973762;28;20070;-75
2022/06/08 02:35:48;;;;;;;2.45;1.35;;;17.60;91.70;;;;;;4972568;28;20511;-75
2022/06/08 02:38:17;;;;;;;2.40;1.75;;;17.50;91.80;;;;;;4972346;28;20054;-76
2022/06/08 02:40:48;;;;;;;3.13;1.70;;;17.50;91.80;;;;;;4956540;28;20018;-76
2022/06/08 02:43:23;;;;;;;2.58;1.67;;;17.50;91.90;;;;;;4956308;28;20022;-75
2022/06/08 02:45:58;;;;;;;2.63;1.63;;;17.50;91.90;;;;;;4973867;28;20031;-76
2022/06/08 02:48:23;;;;;;;2.65;1.50;;;17.50;91.90;;;;;;4956485;28;20030;-76
2022/06/08 02:50:52;;;;;;;2.55;1.40;;;17.50;91.90;;;;;;4956576;28;20385;-75
2022/06/08 02:53:18;;;;;;;2.65;1.80;;;17.50;92.00;;;;;;4956024;28;20025;-75
2022/06/08 02:56:01;;;;;;;2.88;1.38;;;17.50;92.00;;;;;;4973596;28;20030;-75
2022/06/08 02:58:35;;;;;;;2.25;1.70;;;17.50;92.00;;;;;;4973496;28;20027;-77
2022/06/08 03:01:09;;;;;;;3.42;1.75;;;17.50;92.00;;;;;;4956435;28;20122;-77
2022/06/08 03:03:46;;;;;;;2.33;1.65;;;17.50;92.00;;;;;;4956488;28;20065;-77
2022/06/08 03:06:15;;;;;;;2.33;1.50;;;17.40;92.00;;;;;;4956254;28;20030;-76
2022/06/08 03:08:51;;;;;;;2.33;1.60;;;17.50;92.00;;;;;;4956151;28;20031;-75
2022/06/08 03:11:17;;;;;;;3.38;1.60;;;17.50;92.00;;;;;;4973300;28;20027;-76
2022/06/08 03:14:04;;;;;;;4.10;2.20;;;17.50;92.00;;;;;;4955549;28;20515;-76
2022/06/08 03:16:35;;;;;;;3.05;1.90;;;17.50;91.90;;;;;;4973248;28;20034;-76
2022/06/08 03:19:01;;;;;;;3.25;2.08;;;17.50;91.90;;;;;;4972972;28;20030;-76
2022/06/08 03:21:27;;;;;;;3.65;2.00;;;17.60;91.80;;;;;;4956327;28;20054;-76
2022/06/08 03:23:55;;;;;;;3.72;1.98;;;17.50;91.70;;;;;;4955445;28;20514;-76
2022/06/08 03:26:23;;;;;;;4.05;2.10;;;17.60;91.70;;;;;;4973040;28;20056;-77
2022/06/08 03:28:48;;;;;;;3.72;2.13;;;17.60;91.70;;;;;;4973037;28;20023;-76
2022/06/08 03:31:14;;;;;;;2.88;1.90;;;17.60;91.70;;;;;;4973084;28;20106;-77
2022/06/08 03:33:39;;;;;;;2.72;1.77;;;17.60;91.80;;;;;;4972572;28;20034;-76
2022/06/08 03:36:06;;;;;;;3.22;1.70;;;17.50;91.80;;;;;;4955558;28;20031;-78
2022/06/08 03:38:32;;;;;;;3.15;1.90;;;17.60;91.80;;;;;;4972668;28;20504;-77
2022/06/08 03:40:57;;;;;;;2.67;1.70;;;17.50;91.80;;;;;;4956092;28;20114;-75
2022/06/08 03:43:23;;;;;;;2.50;1.70;;;17.50;91.90;;;;;;4972749;28;20034;-75
2022/06/08 03:45:53;;;;;;;3.25;1.70;;;17.50;91.90;;;;;;4956044;28;20023;-77
2022/06/08 03:48:19;;;;;;;3.05;1.60;;;17.50;91.90;;;;;;4988285;28;20027;-77
2022/06/08 03:50:48;;;;;;;3.08;1.85;;;17.50;92.00;;;;;;4973093;28;20031;-75
2022/06/08 03:53:18;;;;;;;2.85;1.77;;;17.40;92.00;;;;;;4955609;28;20022;-75
2022/06/08 03:55:47;;;;;;;3.50;1.90;;;17.50;92.00;;;;;;4955531;28;20031;-76
2022/06/08 03:58:13;;;;;;;3.50;1.85;;;17.40;92.00;;;;;;4973217;28;20102;-78
2022/06/08 04:00:41;;;;;;;2.67;1.70;;;17.50;92.00;;;;;;4955861;28;20583;-76
2022/06/08 04:03:09;;;;;;;3.17;1.60;;;17.50;92.00;;;;;;4955311;28;20395;-76
2022/06/08 04:05:35;;;;;;;4.13;1.80;;;17.40;92.00;;;;;;4972600;28;20023;-76
2022/06/08 04:08:01;;;;;;;2.67;1.70;;;17.50;92.10;;;;;;4972714;28;20030;-75
2022/06/08 04:10:27;;;;;;;3.40;1.85;;;17.40;92.00;;;;;;4955640;28;20027;-76
2022/06/08 04:12:52;;;;;;;3.40;2.00;;;17.40;92.00;;;;;;4955192;28;20027;-76
2022/06/08 04:18:02;;;;;;;4.25;2.20;;;17.50;92.00;;;;;;4970325;28;20085;-75
2022/06/08 04:20:27;;;;;;;4.05;2.40;;;17.50;91.90;;;;;;4972736;28;20031;-75
2022/06/08 04:22:53;;;;;;;4.32;2.30;;;17.60;91.80;;;;;;4972803;28;20034;-75
2022/06/08 04:25:19;;;;;;;4.70;2.30;;;17.60;91.80;;;;;;4972645;28;20157;-76
2022/06/08 04:27:44;;;;;;;4.68;2.55;;;17.60;91.70;;;;;;4972534;28;20069;-75
2022/06/08 04:30:10;;;;;;;4.90;2.60;;;17.60;91.70;;;;;;4975945;28;20435;-75
2022/06/08 04:32:36;;;;;;;4.60;2.60;;;17.60;91.70;;;;;;4958874;28;20029;-76
2022/06/08 04:35:01;;;;;;;4.43;2.40;;;17.60;91.70;;;;;;4973266;28;20023;-76
2022/06/08 04:37:27;;;;;;;3.58;2.13;;;17.60;91.80;;;;;;4957789;28;20058;-75
2022/06/08 04:39:53;;;;;;;6.20;3.17;;;17.60;91.80;;;;;;4958965;28;20027;-75
2022/06/08 04:42:19;;;;;;;5.28;2.70;;;17.60;91.80;;;;;;4972142;28;20043;-75
2022/06/08 04:44:44;;;;;;;5.90;3.42;;;17.50;91.90;;;;;;4967932;28;20098;-77
2022/06/08 04:47:10;;;;;;;5.63;3.20;;;17.50;91.90;;;;;;4958186;28;20038;-76
2022/06/08 04:49:36;;;;;;;5.90;3.15;;;17.50;91.90;;;;;;4958867;28;20030;-77
2022/06/08 04:52:03;;;;;;;5.15;2.80;;;17.50;91.90;;;;;;4976170;28;20027;-76
2022/06/08 04:54:28;;;;;;;4.72;2.80;;;17.50;91.90;;;;;;4974832;28;20113;-78
2022/06/08 04:56:54;;;;;;;5.00;2.60;;;17.50;91.90;;;;;;4970928;28;20110;-77
2022/06/08 04:59:19;;;;;;;5.03;2.85;;;17.50;91.90;;;;;;4990465;28;20077;-76
2022/06/08 05:01:45;;;;;;;4.88;2.85;;;17.50;91.90;;;;;;4958171;28;20027;-76
2022/06/08 05:04:10;;;;;;;4.70;2.78;;;17.50;91.90;;;;;;4975455;28;20034;-77
2022/06/08 05:06:36;;;;;;;4.32;2.40;;;17.50;91.90;;;;;;4975758;28;20034;-76
2022/06/08 05:09:01;;;;;;;4.97;2.72;;;17.60;91.90;;;;;;4990354;28;20118;-76
2022/06/08 05:11:27;;;;;;;4.22;2.42;;;17.50;91.90;;;;;;4958233;28;20027;-75
2022/06/08 05:13:52;;;;;;;5.38;2.97;;;17.50;91.90;;;;;;4986954;28;20018;-77
2022/06/08 05:16:18;;;;;;;5.22;3.00;;;17.50;91.90;;;;;;4990594;28;20121;-76
2022/06/08 05:18:43;;;;;;;5.95;3.47;;;17.60;91.90;;;;;;4958381;28;20138;-76
2022/06/08 05:21:09;;;;;;;6.63;3.75;;;17.50;91.80;;;;;;4988662;28;20029;-76
2022/06/08 05:23:38;;;;;;;7.15;4.40;;;17.60;91.70;;;;;;4955320;28;21888;-76
2022/06/08 05:26:04;;;;;;;5.60;3.15;;;17.60;91.60;;;;;;4975112;28;20030;-76
2022/06/08 05:28:30;;;;;;;4.93;2.80;;;17.70;91.60;;;;;;4957886;28;20054;-76
2022/06/08 05:30:56;;;;;;;5.55;3.00;;;17.70;91.50;;;;;;4958215;28;20117;-76
2022/06/08 05:33:26;;;;;;;5.22;3.28;;;17.70;91.50;;;;;;4975140;28;20023;-74
2022/06/08 05:35:53;;;;;;;5.82;3.50;;;17.60;91.50;;;;;;4957906;28;20027;-76
2022/06/08 05:38:19;;;;;;;6.20;3.67;;;17.60;91.50;;;;;;4975300;28;20073;-76
2022/06/08 05:40:44;;;;;;;5.45;2.80;;;17.60;91.50;;;;;;4974998;28;20154;-75
2022/06/08 05:43:12;;;;;;;6.57;3.85;;;17.70;91.60;;;;;;4975155;28;20563;-74
2022/06/08 05:45:39;;;;;;;5.15;2.90;;;17.60;91.60;;;;;;4957698;28;20078;-75
2022/06/08 05:48:05;;;;;;;5.63;3.33;;;17.60;91.70;;;;;;4974694;28;20023;-77
2022/06/08 05:50:31;;;;;;;6.45;3.88;;;17.60;91.70;;;;;;4957616;28;20085;-76
2022/06/08 05:52:57;;;;;;;6.55;3.30;;;17.60;91.70;;;;;;4974829;28;20019;-76
2022/06/08 05:55:23;;;;;;;5.15;3.00;;;17.60;91.70;;;;;;4957486;28;20030;-77
2022/06/08 05:57:51;;;;;;;5.93;3.55;;;17.60;91.70;;;;;;4957639;28;20030;-76
2022/06/08 06:00:23;;;;;;;5.38;3.10;;;17.60;91.70;;;;;;4975053;28;20023;-76
2022/06/08 06:02:49;;;;;;;5.40;3.17;;;17.60;91.70;;;;;;4957478;28;20058;-76
2022/06/08 06:05:18;;;;;;;5.88;3.45;;;17.60;91.70;;;;;;4974520;28;20038;-75
2022/06/08 06:07:44;;;;;;;5.50;3.13;;;17.70;91.70;;;;;;4974624;28;20074;-75
2022/06/08 06:10:11;;;;;;;5.88;3.30;;;17.70;91.70;;;;;;4957426;28;20031;-74
2022/06/08 06:12:37;;;;;;;6.07;3.60;;;17.70;91.70;;;;;;4974642;28;20512;-76
2022/06/08 06:15:03;;;;;;;5.40;3.08;;;17.60;91.60;;;;;;4974345;28;20094;-75
2022/06/08 06:17:29;;;;;;;5.50;3.28;;;17.70;91.60;;;;;;4958461;28;20402;-75
2022/06/08 06:19:55;;;;;;;5.50;3.13;;;17.70;91.50;;;;;;4973555;28;20026;-75
2022/06/08 06:22:21;;;;;;;5.63;3.42;;;17.70;91.50;;;;;;4973491;28;20046;-75
2022/06/08 06:24:46;;;;;;;5.95;3.50;;;17.70;91.40;;;;;;4955692;28;20400;-75
2022/06/08 06:27:12;;;;;;;5.50;3.33;;;17.80;91.40;;;;;;4956097;28;20416;-75
2022/06/08 06:29:37;;;;;;;5.75;3.22;;;17.80;91.30;;;;;;4973597;28;20027;-76
2022/06/08 06:32:06;;;;;;;6.18;3.50;;;17.80;91.30;;;;;;4973192;28;20030;-74
2022/06/08 06:34:32;;;;;;;5.30;3.20;;;17.80;91.30;;;;;;4972983;28;20404;-75
2022/06/08 06:36:58;;;;;;;5.10;3.15;;;17.80;91.30;;;;;;4956005;28;20041;-74
2022/06/08 06:39:26;;;;;;;6.03;3.83;;;17.80;91.20;;;;;;4973187;28;20031;-74
2022/06/08 06:41:52;;;;;;;5.82;3.63;;;17.80;91.20;;;;;;4955880;28;20023;-75
2022/06/08 06:44:18;;;;;;;6.30;3.53;;;17.80;91.20;;;;;;4973018;28;20038;-75
2022/06/08 06:46:44;;;;;;;5.57;3.17;;;17.80;91.20;;;;;;4972947;28;20030;-75
2022/06/08 06:49:10;;;;;;;5.45;3.03;;;17.80;91.20;;;;;;4987980;28;20073;-75
2022/06/08 06:51:35;;;;;;;5.53;3.20;;;17.80;91.20;;;;;;4955086;28;20027;-75
2022/06/08 06:54:03;;;;;;;5.95;3.58;;;17.80;91.20;;;;;;4972141;28;20135;-75
2022/06/08 06:56:28;;;;;;;5.35;3.22;;;17.80;91.30;;;;;;4973156;28;20027;-74
2022/06/08 06:58:54;;;;;;;5.68;3.65;;;17.80;91.30;;;;;;4955502;28;20085;-75
2022/06/08 07:01:19;;;;;;;5.80;3.63;;;17.80;91.30;;;;;;4972902;28;20035;-75
2022/06/08 07:03:45;;;;;;;6.45;3.63;;;17.80;91.30;;;;;;4955239;28;20035;-75
2022/06/08 07:06:11;;;;;;;5.32;3.15;;;17.80;91.30;;;;;;4955437;28;20030;-75
2022/06/08 07:08:38;;;;;;;5.40;3.22;;;17.70;91.30;;;;;;4972815;28;20027;-75
2022/06/08 07:13:49;;;;;;;6.07;3.33;;;17.70;91.30;;;;;;4972658;28;20118;-75
2022/06/08 07:16:15;;;;;;;5.65;3.47;;;17.80;91.40;;;;;;4955424;28;20028;-75
2022/06/08 07:18:40;;;;;;;6.28;3.67;;;17.70;91.40;;;;;;4972632;28;20573;-75
2022/06/08 07:21:06;;;;;;;5.72;3.30;;;17.80;91.30;;;;;;4987371;28;20030;-75
2022/06/08 07:23:31;;;;;;;5.80;3.40;;;17.80;91.30;;;;;;4972255;28;20030;-75
2022/06/08 07:25:57;;;;;;;5.88;3.60;;;17.90;91.20;;;;;;4955197;28;20456;-75
2022/06/08 07:28:22;;;;;;;5.72;3.35;;;17.90;91.10;;;;;;4972658;28;20106;-75
2022/06/08 07:30:48;;;;;;;5.65;3.33;;;17.90;91.00;;;;;;4955381;28;20396;-75
2022/06/08 07:33:14;;;;;;;5.20;3.15;;;17.90;91.00;;;;;;4972334;28;20030;-75
2022/06/08 07:35:40;;;;;;;5.88;3.40;;;17.90;91.20;;;;;;4955127;28;20030;-75
2022/06/08 07:38:05;;;;;;;5.75;3.40;;;17.90;90.90;;;;;;4955166;28;20033;-75
2022/06/08 07:40:31;;;;;;;5.65;3.30;;;17.90;90.90;;;;;;4955285;28;20045;-75
2022/06/08 07:42:57;;;;;;;5.07;3.13;;;17.90;90.90;;;;;;4954747;28;20065;-75
2022/06/08 07:45:23;;;;;;;5.20;3.15;;;17.90;91.00;;;;;;4955030;28;20023;-74
2022/06/08 07:50:33;;;;;;;5.60;3.50;;;17.90;91.10;;;;;;4972821;28;20510;-75
2022/06/08 07:52:58;;;;;;;5.03;2.90;;;17.90;91.00;;;;;;4971991;28;20034;-76
2022/06/08 07:55:24;;;;;;;5.75;3.33;;;17.90;91.00;;;;;;4987169;28;20035;-75
2022/06/08 07:57:50;;;;;;;6.20;3.53;;;17.90;91.00;;;;;;4987264;28;20033;-75
2022/06/08 08:00:16;;;;;;;6.03;3.58;;;17.90;91.00;;;;;;4954952;28;20027;-75
2022/06/08 08:02:42;;;;;;;5.65;3.38;;;17.90;91.00;;;;;;4954853;28;20402;-74
2022/06/08 08:05:13;;;;;;;6.70;3.88;;;17.90;91.00;;;;;;4958064;28;20026;-75
2022/06/08 08:07:40;;;;;;;5.43;3.47;;;17.90;91.00;;;;;;4976043;28;20033;-75
2022/06/08 08:10:09;;;;;;;6.18;3.30;;;17.90;91.00;;;;;;4958732;28;20503;-75
2022/06/08 08:12:36;;;;;;;5.18;3.13;;;17.90;91.00;;;;;;4975784;28;20038;-76
2022/06/08 08:15:02;;;;;;;5.10;3.05;;;17.90;91.10;;;;;;4975477;28;20110;-75
2022/06/08 08:17:28;;;;;;;4.60;2.88;;;17.90;91.10;;;;;;4958497;28;20029;-75
2022/06/08 08:19:53;;;;;;;5.18;3.20;;;17.90;91.10;;;;;;4958539;28;20023;-74
2022/06/08 08:22:21;;;;;;;6.75;3.60;;;18.00;91.00;;;;;;4975824;28;20038;-75
2022/06/08 08:24:46;;;;;;;5.50;3.22;;;18.00;90.90;;;;;;4958070;28;20026;-76
2022/06/08 08:27:12;;;;;;;5.95;3.75;;;18.10;90.80;;;;;;4958155;28;20027;-75
2022/06/08 08:29:38;;;;;;;5.22;3.17;;;18.10;90.70;;;;;;4975643;28;20042;-75
2022/06/08 08:32:04;;;;;;;5.00;3.08;;;18.10;90.60;;;;;;4975567;28;20030;-76
2022/06/08 08:34:30;;;;;;;5.07;2.97;;;18.20;90.60;;;;;;4958077;28;20030;-75
2022/06/08 08:36:55;;;;;;;5.25;3.13;;;18.10;90.50;;;;;;4958132;28;20411;-75
2022/06/08 08:39:22;;;;;;;5.60;3.20;;;18.10;90.50;;;;;;4975409;28;20081;-75
2022/06/08 08:44:43;;;;;;;5.28;3.17;;;18.10;90.50;;;;;;4975435;28;20414;-75
2022/06/08 08:47:21;;;;;;;5.43;3.10;;;18.20;90.50;;;;;;4975280;28;20114;-75
2022/06/08 08:49:58;;;;;;;5.28;3.28;;;18.10;90.50;;;;;;4990344;28;20023;-75
2022/06/08 08:52:51;;;;;;;5.18;3.17;;;18.10;90.50;;;;;;4975124;28;20456;-75
2022/06/08 08:55:25;;;;;;;5.55;3.08;;;18.10;90.50;;;;;;4974921;28;20412;-75
2022/06/08 08:58:04;;;;;;;5.90;3.63;;;18.20;90.50;;;;;;4975287;28;20073;-75
2022/06/08 09:00:39;;;;;;;4.75;2.90;;;18.10;90.60;;;;;;4957908;28;20177;-74
2022/06/08 09:04:02;;;;;;;5.95;3.42;;;18.10;90.60;;;;;;4957484;28;20030;-75
2022/06/08 09:06:31;;;;;;;5.28;3.15;;;18.10;90.50;;;;;;4899157;29;20101;-74
2022/06/08 09:09:00;;;;;;;5.20;3.05;;;18.20;90.50;;;;;;4899336;29;20190;-74
2022/06/08 09:11:39;;;;;;;5.70;3.30;;;18.20;90.50;;;;;;4929181;28;20038;-75
2022/06/08 09:14:16;;;;;;;5.68;3.47;;;18.30;90.40;;;;;;4957142;28;20061;-75
2022/06/08 09:16:45;;;;;;;5.60;3.35;;;18.30;90.40;;;;;;4973842;28;20037;-74
2022/06/08 09:19:31;;;;;;;5.38;3.17;;;18.30;90.30;;;;;;4989854;28;20086;-75
2022/06/08 09:21:59;;;;;;;5.20;3.10;;;18.40;90.30;;;;;;4957465;28;20555;-75
2022/06/08 09:24:31;;;;;;;5.82;3.40;;;18.40;90.20;;;;;;4989287;28;20512;-75
2022/06/08 09:27:16;;;;;;;5.68;3.35;;;18.40;90.10;;;;;;4989460;28;20484;-76
2022/06/08 09:30:01;;;;;;;6.30;3.67;;;18.40;90.00;;;;;;4957570;28;20030;-75
2022/06/08 09:32:39;;;;;;;5.53;3.35;;;18.40;90.00;;;;;;4989398;28;20085;-71
2022/06/08 09:35:27;;;;;;;5.90;3.45;;;18.50;90.00;;;;;;4973972;28;20100;-71
2022/06/08 09:38:09;;;;;;;5.50;3.17;;;18.40;90.00;;;;;;4974248;28;20019;-71
2022/06/08 09:41:16;;;;;;;5.80;3.50;;;18.40;90.10;;;;;;4957048;28;20399;-74
2022/06/08 09:44:05;;;;;;;5.68;3.30;;;18.40;90.10;;;;;;4898248;29;20398;-74
2022/06/08 09:52:48;;;;;;;5.53;3.03;;;18.30;90.20;;;;;;4974118;28;20034;-75
2022/06/08 09:55:31;;;;;;;5.40;3.20;;;18.40;90.30;;;;;;4956627;28;20042;-75
2022/06/08 09:58:08;;;;;;;5.80;3.20;;;18.30;90.20;;;;;;4973933;28;20023;-75
2022/06/08 10:00:55;;;;;;;5.13;2.85;;;18.40;90.30;;;;;;4988793;28;20031;-74
2022/06/08 10:03:46;;;;;;;5.53;3.47;;;18.30;90.30;;;;;;4973710;28;20444;-75
2022/06/08 10:06:35;;;;;;;5.35;3.20;;;18.30;90.40;;;;;;4956601;28;20026;-75
2022/06/08 10:09:22;;;;;;;5.40;3.15;;;18.30;90.40;;;;;;4955264;28;20396;-75
2022/06/08 10:11:59;;;;;;;5.93;3.30;;;18.30;90.50;;;;;;4972385;28;20078;-75
2022/06/08 10:14:42;;;;;;;5.25;3.30;;;18.30;90.60;;;;;;4973304;28;20043;-74
2022/06/08 10:17:20;;;;;;;5.32;3.17;;;18.30;90.60;;;;;;4956408;28;20022;-74
2022/06/08 10:19:58;;;;;;;5.13;2.75;;;18.30;90.50;;;;;;4956095;28;20026;-71
2022/06/08 10:22:28;;;;;;;5.18;2.90;;;18.30;90.50;;;;;;4973406;28;20106;-75
2022/06/08 10:25:12;;;;;;;4.80;2.78;;;18.30;90.40;;;;;;4972723;28;20023;-72
2022/06/08 10:27:53;;;;;;;5.45;3.17;;;18.30;90.40;;;;;;4973194;28;20034;-70
2022/06/08 10:30:34;;;;;;;5.72;3.10;;;18.30;90.40;;;;;;4955939;28;20022;-71
2022/06/08 10:33:10;;;;;;;4.57;2.72;;;18.30;90.40;;;;;;4955523;28;20022;-70
2022/06/08 10:35:42;;;;;;;4.57;2.63;;;18.30;90.40;;;;;;4973245;28;20161;-71
2022/06/08 10:38:15;;;;;;;;;;;18.30;90.40;;;;;;4956170;28;20027;-74
2022/06/08 10:40:55;;;;;;;5.15;3.00;;;18.30;90.40;;;;;;4988118;28;19909;-74
2022/06/08 10:43:25;;;;;;;4.80;2.90;;;18.30;90.40;;;;;;4973020;28;20114;-74
2022/06/08 10:45:56;;;;;;;5.18;2.78;;;18.30;90.50;;;;;;4955638;28;20565;-74
2022/06/08 10:48:33;;;;;;;5.20;2.70;;;18.30;90.50;;;;;;4973066;28;20037;-74
2022/06/08 10:51:24;;;;;;;4.70;2.63;;;18.20;90.50;;;;;;4955753;28;20435;-74
2022/06/08 10:56:36;;;;;;;5.30;2.80;;;18.30;90.60;;;;;;4973194;28;20045;-74
2022/06/08 10:59:08;;;;;;;4.72;2.70;;;18.20;90.60;;;;;;4972907;28;20027;-75
2022/06/08 11:01:52;;;;;;;;;;;18.20;90.70;;;;;;4973738;28;20447;-74
2022/06/08 11:04:27;;;;;;;4.95;2.92;;;18.20;90.70;;;;;;4972635;28;19964;-74
2022/06/08 11:07:01;;;;;;;5.93;2.65;;;18.10;90.80;;;;;;4987728;28;20027;-74
2022/06/08 11:09:33;;;;;;;4.28;2.47;;;18.20;90.80;;;;;;4972773;28;20038;-73
2022/06/08 11:12:04;;;;;;;4.95;2.75;;;18.20;91.10;;;;;;4987541;28;20511;-74
2022/06/08 11:14:56;;;;;;;4.93;2.70;;;18.20;90.90;;;;;;4955020;28;20050;-74
2022/06/08 11:17:45;;;;;;;4.57;2.80;;;18.10;90.90;;;;;;4949016;28;20570;-74
2022/06/08 11:20:38;;;;;;;5.78;2.70;;;18.10;90.90;;;;;;4955318;28;20519;-71
2022/06/08 11:23:06;;;;;;;5.00;2.72;;;18.10;91.00;;;;;;4972385;28;20027;-74
2022/06/08 11:25:44;;;;;;;5.05;2.63;;;18.00;91.00;;;;;;4972480;28;20106;-74
2022/06/08 11:28:28;;;;;;;4.82;2.70;;;18.10;91.00;;;;;;4972455;28;20062;-74
2022/06/08 11:31:01;;;;;;;4.40;2.28;;;18.10;91.00;;;;;;4972581;28;20037;-74
2022/06/08 11:33:51;;;;;;;4.32;2.53;;;18.10;90.90;;;;;;4972180;28;20074;-73
2022/06/08 11:36:25;;;;;;;;;;;18.10;90.90;;;;;;4973135;28;20019;-74
2022/06/08 11:38:56;;;;;;;4.40;2.28;;;18.10;90.80;;;;;;4988904;28;19909;-74
2022/06/08 11:41:21;;;;;;;4.47;2.47;;;18.10;90.70;;;;;;4991460;28;20034;-74
2022/06/08 11:43:48;;;;;;;4.13;2.58;;;18.10;90.80;;;;;;4975933;28;20031;-74
2022/06/08 11:46:36;;;;;;;4.00;2.30;;;18.10;90.80;;;;;;4976250;28;20033;-74
2022/06/08 11:49:03;;;;;;;4.80;2.88;;;18.10;90.80;;;;;;4958974;28;20022;-74
2022/06/08 11:51:38;;;;;;;4.35;2.40;;;18.10;90.90;;;;;;4975971;28;20047;-74
2022/06/08 11:54:25;;;;;;;4.95;2.83;;;18.10;90.90;;;;;;4956658;28;20086;-74
2022/06/08 11:57:12;;;;;;;3.97;2.33;;;18.00;91.00;;;;;;4957334;28;20038;-75
2022/06/08 11:59:43;;;;;;;4.35;2.47;;;18.00;91.00;;;;;;4989720;28;20035;-74
2022/06/08 12:02:24;;;;;;;4.50;2.55;;;18.00;91.10;;;;;;4989578;28;20054;-75
2022/06/08 12:04:57;;;;;;;5.57;2.60;;;18.00;91.10;;;;;;4989151;28;20038;-74
2022/06/08 12:07:42;;;;;;;5.25;2.65;;;18.00;91.20;;;;;;4957672;28;20031;-74
2022/06/08 12:10:12;;;;;;;4.53;2.20;;;18.00;91.20;;;;;;4990921;28;20477;-75
2022/06/08 12:12:37;;;;;;;3.53;2.13;;;18.00;91.20;;;;;;4958655;28;20027;-74
2022/06/08 12:15:34;;;;;;;4.63;2.22;;;18.00;91.20;;;;;;4975514;28;20106;-74
2022/06/08 12:18:27;;;;;;;4.28;2.53;;;18.00;91.20;;;;;;4959890;28;20029;-74
2022/06/08 12:21:07;;;;;;;4.30;2.40;;;18.00;91.20;;;;;;4976598;28;20031;-75
2022/06/08 12:23:54;;;;;;;4.30;2.50;;;17.90;91.20;;;;;;4991336;28;20058;-75
2022/06/08 12:26:22;;;;;;;4.85;2.65;;;18.00;91.30;;;;;;4976844;28;20037;-74
2022/06/08 12:29:00;;;;;;;6.40;2.90;;;18.00;91.30;;;;;;4959250;28;20023;-75
2022/06/08 12:31:31;;;;;;;3.85;2.22;;;18.00;91.20;;;;;;4991396;28;20451;-76
2022/06/08 12:33:56;;;;;;;4.70;2.80;;;18.00;91.20;;;;;;4990918;28;20534;-77
2022/06/08 12:36:26;;;;;;;4.70;2.47;;;18.00;91.10;;;;;;4958456;28;20030;-76
2022/06/08 12:39:11;;;;;;;3.60;2.15;;;18.10;91.00;;;;;;4958289;28;20026;-76
2022/06/08 12:41:47;;;;;;;4.22;2.30;;;18.10;91.00;;;;;;4958845;28;20492;-72
2022/06/08 12:44:24;;;;;;;3.47;2.10;;;18.10;91.00;;;;;;4990726;28;20022;-72
2022/06/08 12:46:59;;;;;;;3.85;2.17;;;18.10;91.00;;;;;;4976068;28;20396;-75
2022/06/08 12:49:38;;;;;;;4.68;2.38;;;18.00;91.00;;;;;;4976443;28;20027;-76
2022/06/08 12:52:21;;;;;;;3.80;2.20;;;18.00;91.10;;;;;;4958895;28;20023;-74
2022/06/08 12:54:46;;;;;;;4.55;2.35;;;18.00;91.10;;;;;;4976039;28;20026;-74
2022/06/08 12:57:15;;;;;;;4.00;2.30;;;18.00;91.40;;;;;;4975623;28;20027;-70
2022/06/08 12:59:42;;;;;;;4.65;2.50;;;18.00;91.20;;;;;;4958287;28;20031;-70
2022/06/08 13:02:17;;;;;;;3.83;2.28;;;17.90;91.20;;;;;;4990711;28;20468;-74
2022/06/08 13:04:43;;;;;;;3.60;2.20;;;18.00;91.20;;;;;;4975488;28;20491;-75
2022/06/08 13:07:20;;;;;;;4.30;2.35;;;18.00;91.30;;;;;;4975767;28;20122;-74
2022/06/08 13:09:47;;;;;;;4.28;2.17;;;18.00;91.20;;;;;;4958598;28;20373;-74
2022/06/08 13:12:24;;;;;;;3.35;2.00;;;18.00;91.20;;;;;;4990703;28;20042;-75
2022/06/08 13:14:49;;;;;;;3.58;2.05;;;18.00;91.20;;;;;;4958192;28;20031;-74
2022/06/08 13:17:15;;;;;;;3.63;2.15;;;18.00;91.20;;;;;;4975555;28;20122;-74
2022/06/08 13:19:40;;;;;;;3.75;2.03;;;18.00;91.20;;;;;;4958129;28;20066;-75
2022/06/08 13:22:06;;;;;;;4.03;2.13;;;18.00;91.20;;;;;;4958332;28;20066;-75
2022/06/08 13:24:31;;;;;;;3.67;2.20;;;18.00;91.20;;;;;;4957831;28;20118;-74
2022/06/08 13:26:57;;;;;;;3.60;2.25;;;18.00;91.20;;;;;;4975148;28;20034;-75
2022/06/08 13:29:23;;;;;;;3.20;1.98;;;18.00;91.10;;;;;;4975520;28;20031;-75
2022/06/08 13:31:49;;;;;;;3.75;2.15;;;18.00;91.10;;;;;;4975071;28;20023;-76
2022/06/08 13:34:15;;;;;;;3.45;2.00;;;18.00;91.10;;;;;;4957703;28;20118;-76